sensor_id;sensor_type;location;lat;lon;timestamp;temperature;humidity
2955;DHT22;1487;51.470;6.938;2023-10-19T00:00:30;11.80;99.90
2955;DHT22;1487;51.470;6.938;2023-10-19T00:33:19;12.10;99.90
2955;DHT22;1487;51.470;6.938;2023-10-19T00:38:26;12.20;99.90
2955;DHT22;1487;51.470;6.938;2023-10-19T00:41:05;12.20;99.90
2955;DHT22;1487;51.470;6.938;2023-10-19T00:43:38;12.30;99.90
2955;DHT22;1487;51.470;6.938;2023-10-19T00:46:08;12.30;99.90
2955;DHT22;1487;51.470;6.938;2023-10-19T01:19:00;12.50;99.90
2955;DHT22;1487;51.470;6.938;2023-10-19T01:21:32;12.50;99.90
2955;DHT22;1487;51.470;6.938;2023-10-19T01:51:33;12.90;99.90
2955;DHT22;1487;51.470;6.938;2023-10-19T01:54:04;13.00;99.90
2955;DHT22;1487;51.470;6.938;2023-10-19T01:56:30;13.00;99.90
2955;DHT22;1487;51.470;6.938;2023-10-19T01:58:59;13.00;99.90
2955;DHT22;1487;51.470;6.938;2023-10-19T02:01:25;13.10;99.90
2955;DHT22;1487;51.470;6.938;2023-10-19T02:34:16;13.30;99.90
2955;DHT22;1487;51.470;6.938;2023-10-19T03:07:02;13.60;99.90
2955;DHT22;1487;51.470;6.938;2023-10-19T03:09:29;13.70;99.90
2955;DHT22;1487;51.470;6.938;2023-10-19T03:11:56;13.70;99.90
2955;DHT22;1487;51.470;6.938;2023-10-19T03:14:25;13.80;99.90
2955;DHT22;1487;51.470;6.938;2023-10-19T03:16:51;13.80;99.90
2955;DHT22;1487;51.470;6.938;2023-10-19T03:19:20;13.90;99.90
2955;DHT22;1487;51.470;6.938;2023-10-19T03:21:46;13.90;99.90
2955;DHT22;1487;51.470;6.938;2023-10-19T03:24:17;13.90;99.90
2955;DHT22;1487;51.470;6.938;2023-10-19T03:26:48;13.90;99.90
2955;DHT22;1487;51.470;6.938;2023-10-19T03:29:15;13.90;99.90
2955;DHT22;1487;51.470;6.938;2023-10-19T03:31:48;13.90;99.90
2955;DHT22;1487;51.470;6.938;2023-10-19T03:34:15;13.90;99.90
2955;DHT22;1487;51.470;6.938;2023-10-19T03:36:42;13.90;99.90
2955;DHT22;1487;51.470;6.938;2023-10-19T03:39:10;13.90;99.90
2955;DHT22;1487;51.470;6.938;2023-10-19T03:41:41;13.90;99.90
2955;DHT22;1487;51.470;6.938;2023-10-19T03:44:09;13.90;99.90
2955;DHT22;1487;51.470;6.938;2023-10-19T03:46:42;13.90;99.90
2955;DHT22;1487;51.470;6.938;2023-10-19T03:49:19;13.90;99.90
2955;DHT22;1487;51.470;6.938;2023-10-19T03:51:46;13.80;99.90
2955;DHT22;1487;51.470;6.938;2023-10-19T03:54:25;13.80;99.90
2955;DHT22;1487;51.470;6.938;2023-10-19T03:56:54;13.80;99.90
2955;DHT22;1487;51.470;6.938;2023-10-19T03:59:23;13.80;99.90
2955;DHT22;1487;51.470;6.938;2023-10-19T04:01:55;13.80;99.90
2955;DHT22;1487;51.470;6.938;2023-10-19T04:04:24;13.90;99.90
2955;DHT22;1487;51.470;6.938;2023-10-19T04:06:51;13.90;99.90
2955;DHT22;1487;51.470;6.938;2023-10-19T04:09:23;13.90;99.90
2955;DHT22;1487;51.470;6.938;2023-10-19T04:11:55;13.90;99.90
2955;DHT22;1487;51.470;6.938;2023-10-19T04:14:22;13.90;99.90
2955;DHT22;1487;51.470;6.938;2023-10-19T04:16:49;13.90;99.90
2955;DHT22;1487;51.470;6.938;2023-10-19T04:19:16;14.00;99.90
2955;DHT22;1487;51.470;6.938;2023-10-19T04:21:43;14.00;99.90
2955;DHT22;1487;51.470;6.938;2023-10-19T04:24:12;14.00;99.90
2955;DHT22;1487;51.470;6.938;2023-10-19T04:26:39;14.00;99.90
2955;DHT22;1487;51.470;6.938;2023-10-19T04:29:09;14.00;99.90
2955;DHT22;1487;51.470;6.938;2023-10-19T04:31:37;14.00;99.90
2955;DHT22;1487;51.470;6.938;2023-10-19T04:34:06;14.00;99.90
2955;DHT22;1487;51.470;6.938;2023-10-19T04:36:34;13.90;99.90
2955;DHT22;1487;51.470;6.938;2023-10-19T04:39:01;13.90;99.90
2955;DHT22;1487;51.470;6.938;2023-10-19T04:41:28;14.00;99.90
2955;DHT22;1487;51.470;6.938;2023-10-19T04:43:55;14.00;99.90
2955;DHT22;1487;51.470;6.938;2023-10-19T04:46:25;14.00;99.90
2955;DHT22;1487;51.470;6.938;2023-10-19T04:48:54;14.00;99.90
2955;DHT22;1487;51.470;6.938;2023-10-19T04:51:21;14.00;99.90
2955;DHT22;1487;51.470;6.938;2023-10-19T04:53:48;14.00;99.90
2955;DHT22;1487;51.470;6.938;2023-10-19T04:56:14;14.00;99.90
2955;DHT22;1487;51.470;6.938;2023-10-19T04:58:41;14.00;99.90
2955;DHT22;1487;51.470;6.938;2023-10-19T05:01:08;14.00;99.90
2955;DHT22;1487;51.470;6.938;2023-10-19T05:03:38;14.00;99.90
2955;DHT22;1487;51.470;6.938;2023-10-19T05:06:05;14.10;99.90
2955;DHT22;1487;51.470;6.938;2023-10-19T05:08:32;14.10;99.90
2955;DHT22;1487;51.470;6.938;2023-10-19T05:10:59;14.00;99.90
2955;DHT22;1487;51.470;6.938;2023-10-19T05:13:27;14.00;99.90
2955;DHT22;1487;51.470;6.938;2023-10-19T05:15:53;14.00;99.90
2955;DHT22;1487;51.470;6.938;2023-10-19T05:18:21;13.90;99.90
2955;DHT22;1487;51.470;6.938;2023-10-19T05:20:50;13.90;99.90
2955;DHT22;1487;51.470;6.938;2023-10-19T05:23:21;13.90;99.90
2955;DHT22;1487;51.470;6.938;2023-10-19T05:25:49;13.90;99.90
2955;DHT22;1487;51.470;6.938;2023-10-19T05:28:16;13.90;99.90
2955;DHT22;1487;51.470;6.938;2023-10-19T05:30:44;14.00;99.90
2955;DHT22;1487;51.470;6.938;2023-10-19T05:33:11;14.00;99.90
2955;DHT22;1487;51.470;6.938;2023-10-19T05:35:38;14.00;99.90
2955;DHT22;1487;51.470;6.938;2023-10-19T05:38:07;14.00;99.90
2955;DHT22;1487;51.470;6.938;2023-10-19T05:40:34;14.00;99.90
2955;DHT22;1487;51.470;6.938;2023-10-19T05:43:02;14.00;99.90
2955;DHT22;1487;51.470;6.938;2023-10-19T05:45:29;14.00;99.90
2955;DHT22;1487;51.470;6.938;2023-10-19T05:47:57;14.00;99.90
2955;DHT22;1487;51.470;6.938;2023-10-19T05:50:25;14.00;99.90
2955;DHT22;1487;51.470;6.938;2023-10-19T05:52:54;14.00;99.90
2955;DHT22;1487;51.470;6.938;2023-10-19T05:55:22;14.00;99.90
2955;DHT22;1487;51.470;6.938;2023-10-19T05:57:49;14.00;99.90
2955;DHT22;1487;51.470;6.938;2023-10-19T06:00:16;14.00;99.90
2955;DHT22;1487;51.470;6.938;2023-10-19T06:02:48;14.00;99.90
2955;DHT22;1487;51.470;6.938;2023-10-19T06:05:16;13.90;99.90
2955;DHT22;1487;51.470;6.938;2023-10-19T06:07:43;13.90;99.90
2955;DHT22;1487;51.470;6.938;2023-10-19T06:10:12;13.90;99.90
2955;DHT22;1487;51.470;6.938;2023-10-19T06:12:44;14.00;99.90
2955;DHT22;1487;51.470;6.938;2023-10-19T06:15:12;14.00;99.90
2955;DHT22;1487;51.470;6.938;2023-10-19T06:17:40;13.90;99.90
2955;DHT22;1487;51.470;6.938;2023-10-19T06:20:07;14.00;99.90
2955;DHT22;1487;51.470;6.938;2023-10-19T06:22:45;14.00;99.90
2955;DHT22;1487;51.470;6.938;2023-10-19T06:25:16;14.00;99.90
2955;DHT22;1487;51.470;6.938;2023-10-19T06:27:45;14.10;99.90
2955;DHT22;1487;51.470;6.938;2023-10-19T06:30:13;14.10;99.90
2955;DHT22;1487;51.470;6.938;2023-10-19T06:32:45;14.10;99.90
2955;DHT22;1487;51.470;6.938;2023-10-19T06:35:22;14.10;99.90
2955;DHT22;1487;51.470;6.938;2023-10-19T06:38:09;14.10;99.90
2955;DHT22;1487;51.470;6.938;2023-10-19T06:40:36;14.10;99.90
2955;DHT22;1487;51.470;6.938;2023-10-19T06:43:04;14.10;99.90
2955;DHT22;1487;51.470;6.938;2023-10-19T06:45:31;14.20;99.90
2955;DHT22;1487;51.470;6.938;2023-10-19T06:47:59;14.20;99.90
2955;DHT22;1487;51.470;6.938;2023-10-19T06:50:26;14.20;99.90
2955;DHT22;1487;51.470;6.938;2023-10-19T06:52:53;14.20;99.90
2955;DHT22;1487;51.470;6.938;2023-10-19T06:55:21;14.10;99.90
2955;DHT22;1487;51.470;6.938;2023-10-19T06:57:49;14.20;99.90
2955;DHT22;1487;51.470;6.938;2023-10-19T07:00:19;14.20;99.90
2955;DHT22;1487;51.470;6.938;2023-10-19T07:02:46;14.20;99.90
2955;DHT22;1487;51.470;6.938;2023-10-19T07:05:14;14.20;99.90
2955;DHT22;1487;51.470;6.938;2023-10-19T07:07:44;14.20;99.90
2955;DHT22;1487;51.470;6.938;2023-10-19T07:10:12;14.30;99.90
2955;DHT22;1487;51.470;6.938;2023-10-19T07:12:40;14.30;99.90
2955;DHT22;1487;51.470;6.938;2023-10-19T07:15:08;14.40;99.90
2955;DHT22;1487;51.470;6.938;2023-10-19T07:17:40;14.40;99.90
2955;DHT22;1487;51.470;6.938;2023-10-19T07:20:08;14.40;99.90
2955;DHT22;1487;51.470;6.938;2023-10-19T07:22:47;14.40;99.90
2955;DHT22;1487;51.470;6.938;2023-10-19T07:25:14;14.40;99.90
2955;DHT22;1487;51.470;6.938;2023-10-19T07:27:44;14.50;99.90
2955;DHT22;1487;51.470;6.938;2023-10-19T07:30:12;14.50;99.90
2955;DHT22;1487;51.470;6.938;2023-10-19T07:32:42;14.50;99.90
2955;DHT22;1487;51.470;6.938;2023-10-19T07:35:09;14.60;99.90
2955;DHT22;1487;51.470;6.938;2023-10-19T07:37:36;14.60;99.90
2955;DHT22;1487;51.470;6.938;2023-10-19T07:40:05;14.60;99.90
2955;DHT22;1487;51.470;6.938;2023-10-19T07:42:32;14.50;99.90
2955;DHT22;1487;51.470;6.938;2023-10-19T07:45:01;14.60;99.90
2955;DHT22;1487;51.470;6.938;2023-10-19T07:47:28;14.60;99.90
2955;DHT22;1487;51.470;6.938;2023-10-19T07:49:56;14.60;99.90
2955;DHT22;1487;51.470;6.938;2023-10-19T07:52:24;14.70;99.90
2955;DHT22;1487;51.470;6.938;2023-10-19T07:54:51;14.70;99.90
2955;DHT22;1487;51.470;6.938;2023-10-19T07:57:18;14.70;99.90
2955;DHT22;1487;51.470;6.938;2023-10-19T07:59:46;14.70;99.90
2955;DHT22;1487;51.470;6.938;2023-10-19T08:02:13;14.80;99.90
2955;DHT22;1487;51.470;6.938;2023-10-19T08:04:40;14.80;99.90
2955;DHT22;1487;51.470;6.938;2023-10-19T08:07:08;14.80;99.90
2955;DHT22;1487;51.470;6.938;2023-10-19T08:09:36;14.70;99.90
2955;DHT22;1487;51.470;6.938;2023-10-19T08:12:03;14.80;99.90
2955;DHT22;1487;51.470;6.938;2023-10-19T08:14:31;14.90;99.90
2955;DHT22;1487;51.470;6.938;2023-10-19T08:16:58;14.90;99.90
2955;DHT22;1487;51.470;6.938;2023-10-19T08:19:24;15.00;99.90
2955;DHT22;1487;51.470;6.938;2023-10-19T08:21:52;15.10;99.90
2955;DHT22;1487;51.470;6.938;2023-10-19T08:24:21;15.10;99.90
2955;DHT22;1487;51.470;6.938;2023-10-19T08:26:49;15.10;99.90
2955;DHT22;1487;51.470;6.938;2023-10-19T08:29:16;15.20;99.90
2955;DHT22;1487;51.470;6.938;2023-10-19T08:31:45;15.20;99.90
2955;DHT22;1487;51.470;6.938;2023-10-19T08:34:11;15.30;99.90
2955;DHT22;1487;51.470;6.938;2023-10-19T08:36:39;15.30;99.90
2955;DHT22;1487;51.470;6.938;2023-10-19T08:39:05;15.30;99.90
2955;DHT22;1487;51.470;6.938;2023-10-19T08:41:34;15.40;99.90
2955;DHT22;1487;51.470;6.938;2023-10-19T08:44:03;15.50;99.90
2955;DHT22;1487;51.470;6.938;2023-10-19T08:46:30;15.60;99.90
2955;DHT22;1487;51.470;6.938;2023-10-19T08:48:57;15.70;99.90
2955;DHT22;1487;51.470;6.938;2023-10-19T08:51:25;15.80;99.90
2955;DHT22;1487;51.470;6.938;2023-10-19T08:53:53;16.00;99.90
2955;DHT22;1487;51.470;6.938;2023-10-19T08:56:20;16.10;99.90
2955;DHT22;1487;51.470;6.938;2023-10-19T08:58:50;16.10;99.90
2955;DHT22;1487;51.470;6.938;2023-10-19T09:01:18;16.10;99.90
2955;DHT22;1487;51.470;6.938;2023-10-19T09:03:45;16.20;99.90
2955;DHT22;1487;51.470;6.938;2023-10-19T09:06:12;16.20;99.90
2955;DHT22;1487;51.470;6.938;2023-10-19T09:08:41;16.30;99.90
2955;DHT22;1487;51.470;6.938;2023-10-19T09:11:11;16.40;99.90
2955;DHT22;1487;51.470;6.938;2023-10-19T09:13:45;16.50;99.90
2955;DHT22;1487;51.470;6.938;2023-10-19T09:16:16;16.60;99.90
2955;DHT22;1487;51.470;6.938;2023-10-19T09:18:43;16.70;99.90
2955;DHT22;1487;51.470;6.938;2023-10-19T09:21:11;16.70;99.90
2955;DHT22;1487;51.470;6.938;2023-10-19T09:23:50;16.80;99.90
2955;DHT22;1487;51.470;6.938;2023-10-19T09:26:17;16.90;99.90
2955;DHT22;1487;51.470;6.938;2023-10-19T09:28:47;17.00;99.90
2955;DHT22;1487;51.470;6.938;2023-10-19T09:31:15;17.00;99.90
2955;DHT22;1487;51.470;6.938;2023-10-19T09:33:43;17.10;99.90
2955;DHT22;1487;51.470;6.938;2023-10-19T09:36:11;17.10;99.90
2955;DHT22;1487;51.470;6.938;2023-10-19T09:38:39;17.20;99.90
2955;DHT22;1487;51.470;6.938;2023-10-19T09:41:09;17.40;99.90
2955;DHT22;1487;51.470;6.938;2023-10-19T09:43:41;17.60;99.90
2955;DHT22;1487;51.470;6.938;2023-10-19T09:46:10;17.80;99.90
2955;DHT22;1487;51.470;6.938;2023-10-19T09:48:41;18.00;99.90
2955;DHT22;1487;51.470;6.938;2023-10-19T09:51:09;18.00;99.90
2955;DHT22;1487;51.470;6.938;2023-10-19T09:53:36;18.00;99.90
2955;DHT22;1487;51.470;6.938;2023-10-19T09:56:06;18.00;99.90
2955;DHT22;1487;51.470;6.938;2023-10-19T09:58:36;18.00;99.90
2955;DHT22;1487;51.470;6.938;2023-10-19T10:01:07;18.10;99.90
2955;DHT22;1487;51.470;6.938;2023-10-19T10:03:49;18.20;99.90
2955;DHT22;1487;51.470;6.938;2023-10-19T10:06:26;18.10;99.90
2955;DHT22;1487;51.470;6.938;2023-10-19T10:08:53;18.00;99.90
2955;DHT22;1487;51.470;6.938;2023-10-19T10:11:22;18.10;99.90
2955;DHT22;1487;51.470;6.938;2023-10-19T10:13:50;18.00;99.90
2955;DHT22;1487;51.470;6.938;2023-10-19T10:16:21;18.10;99.90
2955;DHT22;1487;51.470;6.938;2023-10-19T10:18:53;18.50;99.90
2955;DHT22;1487;51.470;6.938;2023-10-19T10:21:21;19.00;99.90
2955;DHT22;1487;51.470;6.938;2023-10-19T10:23:51;19.30;99.90
2955;DHT22;1487;51.470;6.938;2023-10-19T10:26:22;19.90;99.90
2955;DHT22;1487;51.470;6.938;2023-10-19T10:29:11;20.50;99.90
2955;DHT22;1487;51.470;6.938;2023-10-19T10:31:43;20.90;99.90
2955;DHT22;1487;51.470;6.938;2023-10-19T10:34:16;21.00;99.90
2955;DHT22;1487;51.470;6.938;2023-10-19T10:36:59;20.90;99.90
2955;DHT22;1487;51.470;6.938;2023-10-19T10:39:28;21.40;99.90
2955;DHT22;1487;51.470;6.938;2023-10-19T10:41:56;22.00;99.90
2955;DHT22;1487;51.470;6.938;2023-10-19T10:44:38;22.40;99.90
2955;DHT22;1487;51.470;6.938;2023-10-19T10:47:07;22.80;99.90
2955;DHT22;1487;51.470;6.938;2023-10-19T10:49:52;23.10;99.90
2955;DHT22;1487;51.470;6.938;2023-10-19T10:52:29;23.40;99.90
2955;DHT22;1487;51.470;6.938;2023-10-19T10:54:57;23.40;99.90
2955;DHT22;1487;51.470;6.938;2023-10-19T10:57:30;23.60;99.90
2955;DHT22;1487;51.470;6.938;2023-10-19T11:00:06;24.20;99.90
2955;DHT22;1487;51.470;6.938;2023-10-19T11:02:34;24.60;99.90
2955;DHT22;1487;51.470;6.938;2023-10-19T11:05:03;24.20;99.90
2955;DHT22;1487;51.470;6.938;2023-10-19T11:07:30;23.80;99.90
2955;DHT22;1487;51.470;6.938;2023-10-19T11:09:57;23.30;99.90
2955;DHT22;1487;51.470;6.938;2023-10-19T11:12:24;22.60;99.90
2955;DHT22;1487;51.470;6.938;2023-10-19T11:14:54;22.30;99.90
2955;DHT22;1487;51.470;6.938;2023-10-19T11:17:21;22.10;99.90
2955;DHT22;1487;51.470;6.938;2023-10-19T11:19:54;22.10;99.90
2955;DHT22;1487;51.470;6.938;2023-10-19T11:22:24;22.20;99.90
2955;DHT22;1487;51.470;6.938;2023-10-19T11:24:52;22.20;99.90
2955;DHT22;1487;51.470;6.938;2023-10-19T11:27:23;22.60;99.90
2955;DHT22;1487;51.470;6.938;2023-10-19T11:29:57;22.70;99.90
2955;DHT22;1487;51.470;6.938;2023-10-19T11:32:24;23.10;99.90
2955;DHT22;1487;51.470;6.938;2023-10-19T11:34:52;24.30;99.90
2955;DHT22;1487;51.470;6.938;2023-10-19T11:37:18;25.20;99.90
2955;DHT22;1487;51.470;6.938;2023-10-19T11:39:46;26.10;99.90
2955;DHT22;1487;51.470;6.938;2023-10-19T11:42:15;26.80;99.90
2955;DHT22;1487;51.470;6.938;2023-10-19T11:44:43;27.30;98.10
2955;DHT22;1487;51.470;6.938;2023-10-19T11:47:10;27.50;97.80
2955;DHT22;1487;51.470;6.938;2023-10-19T11:49:37;26.90;96.80
2955;DHT22;1487;51.470;6.938;2023-10-19T11:52:04;26.30;98.10
2955;DHT22;1487;51.470;6.938;2023-10-19T11:54:33;25.40;98.70
2955;DHT22;1487;51.470;6.938;2023-10-19T11:57:01;23.70;99.90
2955;DHT22;1487;51.470;6.938;2023-10-19T11:59:28;22.70;99.90
2955;DHT22;1487;51.470;6.938;2023-10-19T12:01:55;22.30;99.90
2955;DHT22;1487;51.470;6.938;2023-10-19T12:04:24;21.90;99.90
2955;DHT22;1487;51.470;6.938;2023-10-19T12:06:51;21.50;99.90
2955;DHT22;1487;51.470;6.938;2023-10-19T12:09:18;21.00;99.90
2955;DHT22;1487;51.470;6.938;2023-10-19T12:11:49;20.70;99.90
2955;DHT22;1487;51.470;6.938;2023-10-19T12:14:20;20.40;99.90
2955;DHT22;1487;51.470;6.938;2023-10-19T12:16:46;20.20;99.90
2955;DHT22;1487;51.470;6.938;2023-10-19T12:19:13;19.90;99.90
2955;DHT22;1487;51.470;6.938;2023-10-19T12:21:42;19.80;99.90
2955;DHT22;1487;51.470;6.938;2023-10-19T12:24:10;19.80;99.90
2955;DHT22;1487;51.470;6.938;2023-10-19T12:26:37;19.80;99.90
2955;DHT22;1487;51.470;6.938;2023-10-19T12:29:04;19.90;99.90
2955;DHT22;1487;51.470;6.938;2023-10-19T12:31:36;19.80;99.90
2955;DHT22;1487;51.470;6.938;2023-10-19T12:34:05;19.90;99.90
2955;DHT22;1487;51.470;6.938;2023-10-19T12:36:33;20.10;99.90
2955;DHT22;1487;51.470;6.938;2023-10-19T12:39:01;20.00;99.90
2955;DHT22;1487;51.470;6.938;2023-10-19T12:41:31;19.90;99.90
2955;DHT22;1487;51.470;6.938;2023-10-19T12:43:58;19.80;99.90
2955;DHT22;1487;51.470;6.938;2023-10-19T12:46:27;19.70;99.90
2955;DHT22;1487;51.470;6.938;2023-10-19T12:48:56;19.40;99.90
2955;DHT22;1487;51.470;6.938;2023-10-19T12:51:24;19.20;99.90
2955;DHT22;1487;51.470;6.938;2023-10-19T12:53:51;19.10;99.90
2955;DHT22;1487;51.470;6.938;2023-10-19T12:56:18;19.00;99.90
2955;DHT22;1487;51.470;6.938;2023-10-19T12:58:45;19.10;99.90
2955;DHT22;1487;51.470;6.938;2023-10-19T13:01:13;19.00;99.90
2955;DHT22;1487;51.470;6.938;2023-10-19T13:03:43;19.00;99.90
2955;DHT22;1487;51.470;6.938;2023-10-19T13:06:12;19.00;99.90
2955;DHT22;1487;51.470;6.938;2023-10-19T13:08:39;18.90;99.90
2955;DHT22;1487;51.470;6.938;2023-10-19T13:11:06;18.80;99.90
2955;DHT22;1487;51.470;6.938;2023-10-19T13:13:33;18.80;99.90
2955;DHT22;1487;51.470;6.938;2023-10-19T13:16:02;18.60;99.90
2955;DHT22;1487;51.470;6.938;2023-10-19T13:18:31;18.60;99.90
2955;DHT22;1487;51.470;6.938;2023-10-19T13:20:59;18.60;99.90
2955;DHT22;1487;51.470;6.938;2023-10-19T13:23:31;18.60;99.90
2955;DHT22;1487;51.470;6.938;2023-10-19T13:25:59;18.60;99.90
2955;DHT22;1487;51.470;6.938;2023-10-19T13:28:43;18.60;99.90
2955;DHT22;1487;51.470;6.938;2023-10-19T13:31:09;18.40;99.90
2955;DHT22;1487;51.470;6.938;2023-10-19T13:33:39;18.20;99.90
2955;DHT22;1487;51.470;6.938;2023-10-19T13:36:07;18.00;99.90
2955;DHT22;1487;51.470;6.938;2023-10-19T13:38:35;18.00;99.90
2955;DHT22;1487;51.470;6.938;2023-10-19T13:41:03;17.80;99.90
2955;DHT22;1487;51.470;6.938;2023-10-19T13:43:33;17.80;99.90
2955;DHT22;1487;51.470;6.938;2023-10-19T13:45:59;17.70;99.90
2955;DHT22;1487;51.470;6.938;2023-10-19T13:48:27;17.70;99.90
2955;DHT22;1487;51.470;6.938;2023-10-19T13:50:53;17.70;99.90
2955;DHT22;1487;51.470;6.938;2023-10-19T13:53:26;17.60;99.90
2955;DHT22;1487;51.470;6.938;2023-10-19T13:55:54;17.50;99.90
2955;DHT22;1487;51.470;6.938;2023-10-19T13:58:20;17.50;99.90
2955;DHT22;1487;51.470;6.938;2023-10-19T14:00:48;17.40;99.90
2955;DHT22;1487;51.470;6.938;2023-10-19T14:03:15;17.30;99.90
2955;DHT22;1487;51.470;6.938;2023-10-19T14:05:43;17.30;99.90
2955;DHT22;1487;51.470;6.938;2023-10-19T14:08:14;17.20;99.90
2955;DHT22;1487;51.470;6.938;2023-10-19T14:10:41;17.30;99.90
2955;DHT22;1487;51.470;6.938;2023-10-19T14:13:09;17.30;99.90
2955;DHT22;1487;51.470;6.938;2023-10-19T14:15:37;17.40;99.90
2955;DHT22;1487;51.470;6.938;2023-10-19T14:18:04;17.50;99.90
2955;DHT22;1487;51.470;6.938;2023-10-19T14:20:31;17.40;99.90
2955;DHT22;1487;51.470;6.938;2023-10-19T14:23:00;17.40;99.90
2955;DHT22;1487;51.470;6.938;2023-10-19T14:25:28;17.40;99.90
2955;DHT22;1487;51.470;6.938;2023-10-19T14:27:55;17.30;99.90
2955;DHT22;1487;51.470;6.938;2023-10-19T14:30:27;17.30;99.90
2955;DHT22;1487;51.470;6.938;2023-10-19T14:32:55;17.20;99.90
2955;DHT22;1487;51.470;6.938;2023-10-19T14:35:23;17.20;99.90
2955;DHT22;1487;51.470;6.938;2023-10-19T14:37:51;17.20;99.90
2955;DHT22;1487;51.470;6.938;2023-10-19T14:40:21;17.20;99.90
2955;DHT22;1487;51.470;6.938;2023-10-19T14:42:50;17.20;99.90
2955;DHT22;1487;51.470;6.938;2023-10-19T14:45:20;17.10;99.90
2955;DHT22;1487;51.470;6.938;2023-10-19T14:47:53;17.10;99.90
2955;DHT22;1487;51.470;6.938;2023-10-19T14:50:20;17.00;99.90
2955;DHT22;1487;51.470;6.938;2023-10-19T14:52:48;17.00;99.90
2955;DHT22;1487;51.470;6.938;2023-10-19T14:55:16;17.00;99.90
2955;DHT22;1487;51.470;6.938;2023-10-19T14:57:44;16.90;99.90
2955;DHT22;1487;51.470;6.938;2023-10-19T15:00:15;16.90;99.90
2955;DHT22;1487;51.470;6.938;2023-10-19T15:02:48;16.90;99.90
2955;DHT22;1487;51.470;6.938;2023-10-19T15:05:17;16.90;99.90
2955;DHT22;1487;51.470;6.938;2023-10-19T15:07:47;16.80;99.90
2955;DHT22;1487;51.470;6.938;2023-10-19T15:10:18;16.80;99.90
2955;DHT22;1487;51.470;6.938;2023-10-19T15:12:45;16.70;99.90
2955;DHT22;1487;51.470;6.938;2023-10-19T15:15:12;16.60;99.90
2955;DHT22;1487;51.470;6.938;2023-10-19T15:17:39;16.60;99.90
2955;DHT22;1487;51.470;6.938;2023-10-19T15:20:08;16.60;99.90
2955;DHT22;1487;51.470;6.938;2023-10-19T15:22:37;16.60;99.90
2955;DHT22;1487;51.470;6.938;2023-10-19T15:25:04;16.50;99.90
2955;DHT22;1487;51.470;6.938;2023-10-19T15:27:33;16.50;99.90
2955;DHT22;1487;51.470;6.938;2023-10-19T15:30:00;16.50;99.90
2955;DHT22;1487;51.470;6.938;2023-10-19T15:32:27;16.50;99.90
2955;DHT22;1487;51.470;6.938;2023-10-19T15:34:56;16.50;99.90
2955;DHT22;1487;51.470;6.938;2023-10-19T15:37:23;16.50;99.90
2955;DHT22;1487;51.470;6.938;2023-10-19T15:39:51;16.40;99.90
2955;DHT22;1487;51.470;6.938;2023-10-19T15:42:18;16.40;99.90
2955;DHT22;1487;51.470;6.938;2023-10-19T15:44:47;16.40;99.90
2955;DHT22;1487;51.470;6.938;2023-10-19T15:47:14;16.40;99.90
2955;DHT22;1487;51.470;6.938;2023-10-19T15:49:47;16.40;99.90
2955;DHT22;1487;51.470;6.938;2023-10-19T15:52:17;16.40;99.90
2955;DHT22;1487;51.470;6.938;2023-10-19T15:54:45;16.50;99.90
2955;DHT22;1487;51.470;6.938;2023-10-19T15:57:13;16.50;99.90
2955;DHT22;1487;51.470;6.938;2023-10-19T15:59:40;16.50;99.90
2955;DHT22;1487;51.470;6.938;2023-10-19T16:02:07;16.50;99.90
2955;DHT22;1487;51.470;6.938;2023-10-19T16:04:34;16.50;99.90
2955;DHT22;1487;51.470;6.938;2023-10-19T16:07:01;16.50;99.90
2955;DHT22;1487;51.470;6.938;2023-10-19T16:09:27;16.50;99.90
2955;DHT22;1487;51.470;6.938;2023-10-19T16:11:54;16.50;99.90
2955;DHT22;1487;51.470;6.938;2023-10-19T16:14:23;16.50;99.90
2955;DHT22;1487;51.470;6.938;2023-10-19T16:16:50;16.50;99.90
2955;DHT22;1487;51.470;6.938;2023-10-19T16:19:17;16.40;99.90
2955;DHT22;1487;51.470;6.938;2023-10-19T16:21:44;16.40;99.90
2955;DHT22;1487;51.470;6.938;2023-10-19T16:24:12;16.40;99.90
2955;DHT22;1487;51.470;6.938;2023-10-19T16:26:39;16.40;99.90
2955;DHT22;1487;51.470;6.938;2023-10-19T16:29:06;16.30;99.90
2955;DHT22;1487;51.470;6.938;2023-10-19T16:31:42;16.20;99.90
2955;DHT22;1487;51.470;6.938;2023-10-19T16:34:09;16.20;99.90
2955;DHT22;1487;51.470;6.938;2023-10-19T16:36:36;16.10;99.90
2955;DHT22;1487;51.470;6.938;2023-10-19T16:39:04;16.00;99.90
2955;DHT22;1487;51.470;6.938;2023-10-19T16:41:33;16.00;99.90
2955;DHT22;1487;51.470;6.938;2023-10-19T16:44:00;15.90;99.90
2955;DHT22;1487;51.470;6.938;2023-10-19T16:46:27;15.80;99.90
2955;DHT22;1487;51.470;6.938;2023-10-19T16:48:55;15.80;99.90
2955;DHT22;1487;51.470;6.938;2023-10-19T16:51:22;15.70;99.90
2955;DHT22;1487;51.470;6.938;2023-10-19T16:53:49;15.70;99.90
2955;DHT22;1487;51.470;6.938;2023-10-19T16:56:16;15.60;99.90
2955;DHT22;1487;51.470;6.938;2023-10-19T16:58:42;15.60;99.90
2955;DHT22;1487;51.470;6.938;2023-10-19T17:01:09;15.50;99.90
2955;DHT22;1487;51.470;6.938;2023-10-19T17:03:36;15.50;99.90
2955;DHT22;1487;51.470;6.938;2023-10-19T17:06:05;15.40;99.90
2955;DHT22;1487;51.470;6.938;2023-10-19T17:08:31;15.40;99.90
2955;DHT22;1487;51.470;6.938;2023-10-19T17:10:59;15.30;99.90
2955;DHT22;1487;51.470;6.938;2023-10-19T17:13:27;15.30;99.90
2955;DHT22;1487;51.470;6.938;2023-10-19T17:15:54;15.30;99.90
2955;DHT22;1487;51.470;6.938;2023-10-19T17:18:21;15.30;99.90
2955;DHT22;1487;51.470;6.938;2023-10-19T17:20:48;15.20;99.90
2955;DHT22;1487;51.470;6.938;2023-10-19T17:23:16;15.20;99.90
2955;DHT22;1487;51.470;6.938;2023-10-19T17:25:44;15.10;99.90
2955;DHT22;1487;51.470;6.938;2023-10-19T17:28:11;15.00;99.90
2955;DHT22;1487;51.470;6.938;2023-10-19T17:30:38;15.00;99.90
2955;DHT22;1487;51.470;6.938;2023-10-19T17:33:06;14.90;99.90
2955;DHT22;1487;51.470;6.938;2023-10-19T17:35:34;14.80;99.90
2955;DHT22;1487;51.470;6.938;2023-10-19T17:38:01;14.70;99.90
2955;DHT22;1487;51.470;6.938;2023-10-19T17:40:29;14.70;99.90
2955;DHT22;1487;51.470;6.938;2023-10-19T17:42:56;14.60;99.90
2955;DHT22;1487;51.470;6.938;2023-10-19T17:45:23;14.60;99.90
2955;DHT22;1487;51.470;6.938;2023-10-19T17:47:50;14.50;99.90
2955;DHT22;1487;51.470;6.938;2023-10-19T17:50:18;14.50;99.90
2955;DHT22;1487;51.470;6.938;2023-10-19T17:52:45;14.40;99.90
2955;DHT22;1487;51.470;6.938;2023-10-19T17:55:34;14.40;99.90
2955;DHT22;1487;51.470;6.938;2023-10-19T17:58:01;14.30;99.90
2955;DHT22;1487;51.470;6.938;2023-10-19T18:00:30;14.30;99.90
2955;DHT22;1487;51.470;6.938;2023-10-19T18:02:56;14.20;99.90
2955;DHT22;1487;51.470;6.938;2023-10-19T18:05:23;14.30;99.90
2955;DHT22;1487;51.470;6.938;2023-10-19T18:07:50;14.30;99.90
2955;DHT22;1487;51.470;6.938;2023-10-19T18:10:18;14.20;99.90
2955;DHT22;1487;51.470;6.938;2023-10-19T18:12:46;14.20;99.90
2955;DHT22;1487;51.470;6.938;2023-10-19T18:15:14;14.20;99.90
2955;DHT22;1487;51.470;6.938;2023-10-19T18:17:45;14.20;99.90
2955;DHT22;1487;51.470;6.938;2023-10-19T18:20:12;14.20;99.90
2955;DHT22;1487;51.470;6.938;2023-10-19T18:22:41;14.20;99.90
2955;DHT22;1487;51.470;6.938;2023-10-19T18:25:08;14.20;99.90
2955;DHT22;1487;51.470;6.938;2023-10-19T18:27:37;14.20;99.90
2955;DHT22;1487;51.470;6.938;2023-10-19T18:30:06;14.20;99.90
2955;DHT22;1487;51.470;6.938;2023-10-19T18:32:35;14.10;99.90
2955;DHT22;1487;51.470;6.938;2023-10-19T18:35:03;14.10;99.90
2955;DHT22;1487;51.470;6.938;2023-10-19T18:37:31;14.10;99.90
2955;DHT22;1487;51.470;6.938;2023-10-19T18:39:58;14.10;99.90
2955;DHT22;1487;51.470;6.938;2023-10-19T18:42:25;14.00;99.90